createdAt,value
2023-04-22T00:00:41.314Z,99579.72
2023-04-22T00:03:14.584Z,99583.27
2023-04-22T00:05:46.885Z,99579.20
2023-04-22T00:08:19.709Z,99578.22
2023-04-22T00:10:51.357Z,99579.87
2023-04-22T00:13:24.219Z,99574.59
2023-04-22T00:15:55.814Z,99575.34
2023-04-22T00:18:27.534Z,99573.79
2023-04-22T00:20:59.235Z,99577.27
2023-04-22T00:23:31.682Z,99580.51
2023-04-22T00:26:03.393Z,99578.28
2023-04-22T00:28:35.419Z,99589.61
2023-04-22T00:31:07.473Z,99588.41
2023-04-22T00:33:39.229Z,99583.99
2023-04-22T00:36:10.826Z,99584.91
2023-04-22T00:38:43.245Z,99585.00
2023-04-22T00:41:15.344Z,99588.66
2023-04-22T00:43:47.104Z,99592.14
2023-04-22T00:46:18.908Z,99595.42
2023-04-22T00:48:50.671Z,99602.13
2023-04-22T00:51:22.232Z,99596.31
2023-04-22T00:53:53.965Z,99593.74
2023-04-22T00:56:27.402Z,99587.75
2023-04-22T00:58:59.015Z,99596.01
2023-04-22T01:01:31.024Z,99588.03
2023-04-22T01:04:02.989Z,99590.39
2023-04-22T01:06:35.396Z,99589.46
2023-04-22T01:09:07.073Z,99586.17
2023-04-22T01:11:39.097Z,99585.77
2023-04-22T01:14:10.920Z,99585.31
2023-04-22T01:16:43.859Z,99594.58
2023-04-22T01:19:15.611Z,99593.37
2023-04-22T01:21:47.469Z,99589.45
2023-04-22T01:24:19.007Z,99597.22
2023-04-22T01:26:50.753Z,99591.08
2023-04-22T01:29:22.501Z,99599.72
2023-04-22T01:31:54.222Z,99591.36
2023-04-22T01:34:25.900Z,99600.00
2023-04-22T01:36:57.648Z,99595.98
2023-04-22T01:39:29.959Z,99596.64
2023-04-22T01:42:02.295Z,99592.72
2023-04-22T01:44:33.872Z,99597.64
2023-04-22T01:47:05.982Z,99602.67
2023-04-22T01:49:39.041Z,99599.76
2023-04-22T01:52:11.593Z,99601.88
2023-04-22T01:54:43.158Z,99602.02
2023-04-22T01:57:16.520Z,99609.30
2023-04-22T01:59:49.091Z,99609.92
2023-04-22T02:02:20.715Z,99600.73
2023-04-22T02:04:52.458Z,99612.20
2023-04-22T02:07:24.000Z,99607.55
2023-04-22T02:09:55.525Z,99611.41
2023-04-22T02:12:27.542Z,99615.59
2023-04-22T02:17:43.875Z,99619.72
2023-04-22T02:20:16.165Z,99614.06
2023-04-22T02:22:50.791Z,99621.82
2023-04-22T02:25:23.761Z,99621.47
2023-04-22T02:27:55.269Z,99616.34
2023-04-22T02:30:27.578Z,99620.39
2023-04-22T02:32:59.330Z,99618.31
2023-04-22T02:35:31.058Z,99616.96
2023-04-22T02:38:02.614Z,99612.83
2023-04-22T02:40:34.923Z,99620.59
2023-04-22T02:43:06.634Z,99620.86
2023-04-22T02:45:38.792Z,99620.13
2023-04-22T02:48:10.634Z,99620.13
2023-04-22T02:50:42.928Z,99626.41
2023-04-22T02:53:14.673Z,99616.08
2023-04-22T02:55:46.357Z,99621.48
2023-04-22T02:58:18.386Z,99625.19
2023-04-22T03:00:50.039Z,99620.78
2023-04-22T03:03:22.832Z,99620.91
2023-04-22T03:05:54.573Z,99622.02
2023-04-22T03:08:27.406Z,99630.13
2023-04-22T03:10:58.916Z,99628.78
2023-04-22T03:13:30.465Z,99622.75
2023-04-22T03:16:02.033Z,99629.23
2023-04-22T03:18:35.826Z,99633.23
2023-04-22T03:21:08.578Z,99634.80
2023-04-22T03:23:40.361Z,99638.23
2023-04-22T03:26:12.138Z,99639.05
2023-04-22T03:28:44.583Z,99639.86
2023-04-22T03:31:16.427Z,99647.77
2023-04-22T03:33:48.957Z,99647.22
2023-04-22T03:36:22.287Z,99649.34
2023-04-22T03:38:54.047Z,99649.19
2023-04-22T03:41:27.709Z,99663.13
2023-04-22T03:44:01.640Z,99658.52
2023-04-22T03:46:42.401Z,99661.47
2023-04-22T03:49:18.929Z,99661.47
2023-04-22T03:51:50.926Z,99663.97
2023-04-22T03:54:24.425Z,99662.27
2023-04-22T03:56:56.623Z,99671.17
2023-04-22T03:59:28.657Z,99670.97
2023-04-22T04:02:00.754Z,99666.77
2023-04-22T04:04:35.061Z,99674.33
2023-04-22T04:07:08.683Z,99673.73
2023-04-22T04:09:40.752Z,99678.97
2023-04-22T04:12:12.698Z,99680.09
2023-04-22T04:14:46.230Z,99685.92
2023-04-22T04:17:20.666Z,99684.72
2023-04-22T04:19:55.930Z,99687.96
2023-04-22T04:22:29.450Z,99688.95
2023-04-22T04:25:02.714Z,99686.84
2023-04-22T04:27:38.913Z,99692.41
2023-04-22T04:30:11.934Z,99692.03
2023-04-22T04:32:46.009Z,99693.44
2023-04-22T04:35:18.476Z,99696.78
2023-04-22T04:37:55.349Z,99700.95
2023-04-22T04:40:28.578Z,99702.25
2023-04-22T04:43:11.020Z,99711.50
2023-04-22T04:45:48.775Z,99710.19
2023-04-22T04:48:24.319Z,99713.33
2023-04-22T04:50:58.992Z,99712.02
2023-04-22T04:53:32.601Z,99719.27
2023-04-22T04:56:05.602Z,99721.22
2023-04-22T04:58:38.557Z,99721.69
2023-04-22T05:01:11.862Z,99718.16
2023-04-22T05:03:45.195Z,99718.55
2023-04-22T05:06:18.271Z,99723.06
2023-04-22T05:08:54.557Z,99716.16
2023-04-22T05:11:26.072Z,99714.47
2023-04-22T05:13:57.969Z,99720.75
2023-04-22T05:16:31.693Z,99713.93
2023-04-22T05:19:03.829Z,99723.09
2023-04-22T05:21:36.936Z,99722.36
2023-04-22T05:24:08.805Z,99728.98
2023-04-22T05:26:40.705Z,99724.00
2023-04-22T05:29:14.590Z,99729.68
2023-04-22T05:31:46.170Z,99723.91
2023-04-22T05:34:18.078Z,99727.85
2023-04-22T05:36:49.957Z,99725.50
2023-04-22T05:39:22.033Z,99725.91
2023-04-22T05:41:54.880Z,99725.28
2023-04-22T05:44:27.268Z,99723.92
2023-04-22T05:46:59.305Z,99724.59
2023-04-22T05:49:31.318Z,99727.31
2023-04-22T05:52:19.939Z,99724.58
2023-04-22T05:54:56.271Z,99729.32
2023-04-22T05:57:28.033Z,99729.97
2023-04-22T06:00:01.919Z,99732.16
2023-04-22T06:02:35.832Z,99733.31
2023-04-22T06:05:08.543Z,99734.98
2023-04-22T06:07:40.953Z,99742.41
2023-04-22T06:10:12.798Z,99737.89
2023-04-22T06:12:44.682Z,99743.48
2023-04-22T06:15:16.342Z,99745.14
2023-04-22T06:17:49.645Z,99740.19
2023-04-22T06:20:21.829Z,99742.49
2023-04-22T06:22:53.516Z,99739.36
2023-04-22T06:25:25.063Z,99739.22
2023-04-22T06:27:56.742Z,99744.22
2023-04-22T06:30:28.549Z,99744.00
2023-04-22T06:33:00.462Z,99742.02
2023-04-22T06:35:33.036Z,99741.61
2023-04-22T06:38:04.703Z,99745.89
2023-04-22T06:40:38.042Z,99747.33
2023-04-22T06:43:14.084Z,99751.06
2023-04-22T06:45:53.505Z,99752.70
2023-04-22T06:48:39.453Z,99748.77
2023-04-22T06:51:29.419Z,99755.91
2023-04-22T06:54:01.459Z,99758.09
2023-04-22T06:56:33.650Z,99757.91
2023-04-22T06:59:05.599Z,99768.81
2023-04-22T07:01:37.800Z,99763.70
2023-04-22T07:04:10.183Z,99764.39
2023-04-22T07:06:41.849Z,99765.91
2023-04-22T07:09:13.754Z,99767.04
2023-04-22T07:11:46.843Z,99766.72
2023-04-22T07:14:20.206Z,99775.88
2023-04-22T07:16:52.183Z,99775.61
2023-04-22T07:19:23.749Z,99773.77
2023-04-22T07:21:55.591Z,99776.84
2023-04-22T07:24:27.357Z,99778.48
2023-04-22T07:26:59.625Z,99776.34
2023-04-22T07:29:31.869Z,99780.41
2023-04-22T07:32:03.866Z,99777.48
2023-04-22T07:34:36.394Z,99777.48
2023-04-22T07:37:09.647Z,99781.41
2023-04-22T07:39:42.188Z,99783.25
2023-04-22T07:42:14.080Z,99783.61
2023-04-22T07:44:45.741Z,99783.47
2023-04-22T07:47:17.290Z,99790.45
2023-04-22T07:49:49.449Z,99792.09
2023-04-22T07:52:21.166Z,99790.77
2023-04-22T07:54:53.127Z,99788.30
2023-04-22T07:57:25.405Z,99787.33
2023-04-22T07:59:56.880Z,99797.72
2023-04-22T08:02:29.125Z,99794.20
2023-04-22T08:05:01.269Z,99804.24
2023-04-22T08:07:33.831Z,99800.49
2023-04-22T08:10:17.710Z,99801.03
2023-04-22T08:12:49.670Z,99797.70
2023-04-22T08:15:21.258Z,99798.05
2023-04-22T08:17:53.696Z,99796.09
2023-04-22T08:20:25.959Z,99800.66
2023-04-22T08:22:59.670Z,99801.22
2023-04-22T08:25:31.610Z,99796.85
2023-04-22T08:28:03.396Z,99805.52
2023-04-22T08:30:35.157Z,99796.45
2023-04-22T08:33:07.196Z,99796.06
2023-04-22T08:35:39.026Z,99802.80
2023-04-22T08:38:10.563Z,99803.53
2023-04-22T08:40:42.572Z,99801.97
2023-04-22T08:43:14.205Z,99807.77
2023-04-22T08:45:45.986Z,99807.34
2023-04-22T08:48:17.827Z,99806.83
2023-04-22T08:50:49.612Z,99807.77
2023-04-22T08:53:24.611Z,99807.02
2023-04-22T08:55:57.625Z,99809.31
2023-04-22T08:58:29.800Z,99801.68
2023-04-22T09:01:01.665Z,99807.58
2023-04-22T09:03:33.584Z,99805.61
2023-04-22T09:06:06.251Z,99809.83
2023-04-22T09:08:38.934Z,99811.94
2023-04-22T09:11:11.772Z,99814.72
2023-04-22T09:13:44.070Z,99810.98
2023-04-22T09:16:15.943Z,99807.17
2023-04-22T09:18:49.365Z,99813.86
2023-04-22T09:21:21.408Z,99813.86
2023-04-22T09:23:54.172Z,99811.42
2023-04-22T09:26:27.201Z,99813.13
2023-04-22T09:29:00.867Z,99816.25
2023-04-22T09:31:32.685Z,99811.37
2023-04-22T09:34:04.561Z,99809.63
2023-04-22T09:36:37.828Z,99808.57
2023-04-22T09:39:09.993Z,99818.17
2023-04-22T09:41:41.611Z,99804.93
2023-04-22T09:44:19.445Z,99801.06
2023-04-22T09:46:51.276Z,99803.69
2023-04-22T09:49:23.795Z,99798.96
2023-04-22T09:51:58.413Z,99808.50
2023-04-22T09:54:30.015Z,99802.83
2023-04-22T09:57:02.328Z,99805.80
2023-04-22T09:59:34.104Z,99812.22
2023-04-22T10:02:07.245Z,99806.11
2023-04-22T10:04:39.109Z,99805.91
2023-04-22T10:07:10.770Z,99803.41
2023-04-22T10:09:42.338Z,99800.27
2023-04-22T10:12:16.511Z,99796.41
2023-04-22T10:14:47.677Z,99795.27
2023-04-22T10:17:19.380Z,99798.16
2023-04-22T10:19:51.499Z,99793.52
2023-04-22T10:22:23.163Z,99792.47
2023-04-22T10:24:56.085Z,99791.54
2023-04-22T10:27:27.699Z,99789.75
2023-04-22T10:29:59.248Z,99788.20
2023-04-22T10:32:31.969Z,99789.81
2023-04-22T10:35:14.340Z,99788.83
2023-04-22T10:37:46.408Z,99792.89
2023-04-22T10:40:18.664Z,99789.42
2023-04-22T10:42:55.571Z,99794.34
2023-04-22T10:45:27.262Z,99788.92
2023-04-22T10:48:00.616Z,99785.22
2023-04-22T10:50:33.384Z,99778.44
2023-04-22T10:53:35.886Z,99786.44
2023-04-22T10:56:10.973Z,99787.05
2023-04-22T10:58:42.864Z,99786.38
2023-04-22T11:01:16.255Z,99788.09
2023-04-22T11:03:48.091Z,99790.21
2023-04-22T11:06:31.980Z,99788.10
2023-04-22T11:09:12.879Z,99794.92
2023-04-22T11:11:44.599Z,99797.41
2023-04-22T11:14:16.276Z,99793.70
2023-04-22T11:16:48.697Z,99808.14
2023-04-22T11:19:20.383Z,99805.02
2023-04-22T11:21:52.317Z,99813.47
2023-04-22T11:24:24.050Z,99819.58
2023-04-22T11:26:57.266Z,99816.26
2023-04-22T11:29:28.857Z,99816.22
2023-04-22T11:32:00.900Z,99817.50
2023-04-22T11:34:32.930Z,99817.53
2023-04-22T11:37:04.550Z,99821.00
2023-04-22T11:39:44.401Z,99818.36
2023-04-22T11:42:12.805Z,99813.20
2023-04-22T11:44:45.460Z,99817.17
2023-04-22T11:47:17.211Z,99818.23
2023-04-22T11:50:03.796Z,99817.09
2023-04-22T11:52:55.956Z,99816.68
2023-04-22T11:55:33.095Z,99819.13
2023-04-22T11:58:12.096Z,99811.31
2023-04-22T12:00:45.698Z,99812.58
2023-04-22T12:03:27.640Z,99819.16
2023-04-22T12:06:12.406Z,99816.50
2023-04-22T12:08:45.083Z,99819.65
2023-04-22T12:11:16.965Z,99809.03
2023-04-22T12:13:51.310Z,99807.42
2023-04-22T12:16:22.982Z,99811.20
2023-04-22T12:18:56.328Z,99808.02
2023-04-22T12:21:28.605Z,99801.33
2023-04-22T12:24:06.934Z,99805.33
2023-04-22T12:26:39.095Z,99805.00
2023-04-22T12:29:10.797Z,99810.27
2023-04-22T12:31:42.809Z,99809.03
2023-04-22T12:34:14.533Z,99799.05
2023-04-22T12:36:46.185Z,99807.28
2023-04-22T12:39:19.068Z,99805.33
2023-04-22T12:41:51.207Z,99795.11
2023-04-22T12:44:25.157Z,99801.42
2023-04-22T12:46:56.516Z,99805.09
2023-04-22T12:49:28.051Z,99804.00
2023-04-22T12:51:59.719Z,99801.08
2023-04-22T12:54:31.374Z,99806.81
2023-04-22T12:57:03.813Z,99805.52
2023-04-22T12:59:41.830Z,99805.52
2023-04-22T13:02:13.830Z,99799.05
2023-04-22T13:04:46.098Z,99802.10
2023-04-22T13:07:17.973Z,99800.85
2023-04-22T13:09:49.844Z,99797.36
2023-04-22T13:12:22.049Z,99797.23
2023-04-22T13:14:53.620Z,99796.50
2023-04-22T13:17:26.304Z,99801.29
2023-04-22T13:19:57.899Z,99800.86
2023-04-22T13:22:29.589Z,99799.61
2023-04-22T13:25:01.292Z,99803.97
2023-04-22T13:27:33.202Z,99803.70
2023-04-22T13:30:05.379Z,99804.66
2023-04-22T13:32:38.782Z,99806.03
2023-04-22T13:35:11.091Z,99807.19
2023-04-22T13:37:43.156Z,99810.93
2023-04-22T13:40:14.824Z,99801.94
2023-04-22T13:42:46.613Z,99803.02
2023-04-22T13:45:18.165Z,99809.17
2023-04-22T13:47:49.864Z,99810.54
2023-04-22T13:50:21.737Z,99806.66
2023-04-22T13:52:53.389Z,99810.16
2023-04-22T13:55:26.769Z,99811.09
2023-04-22T13:57:58.383Z,99801.73
2023-04-22T14:00:30.130Z,99805.20
2023-04-22T14:03:02.483Z,99806.85
2023-04-22T14:05:34.314Z,99806.95
2023-04-22T14:08:06.519Z,99806.70
2023-04-22T14:10:38.117Z,99807.95
2023-04-22T14:13:09.728Z,99816.34
2023-04-22T14:15:41.456Z,99807.81
2023-04-22T14:18:13.291Z,99805.86
2023-04-22T14:20:45.490Z,99813.54
2023-04-22T14:23:17.364Z,99816.98
2023-04-22T14:25:49.458Z,99816.92
2023-04-22T14:28:21.285Z,99815.32
2023-04-22T14:30:53.223Z,99814.34
2023-04-22T14:33:25.820Z,99815.14
2023-04-22T14:35:57.670Z,99807.89
2023-04-22T14:38:29.884Z,99811.63
2023-04-22T14:41:01.748Z,99809.02
2023-04-22T14:43:34.180Z,99814.24
2023-04-22T14:46:05.907Z,99818.84
2023-04-22T14:48:39.360Z,99814.88
2023-04-22T14:51:11.101Z,99810.05
2023-04-22T14:53:43.866Z,99814.44
2023-04-22T14:56:15.464Z,99818.98
2023-04-22T14:58:47.018Z,99817.06
2023-04-22T15:01:20.362Z,99824.03
2023-04-22T15:03:52.245Z,99818.87
2023-04-22T15:06:24.484Z,99825.02
2023-04-22T15:08:56.397Z,99828.05
2023-04-22T15:11:28.120Z,99825.25
2023-04-22T15:14:00.873Z,99825.37
2023-04-22T15:16:32.730Z,99830.12
2023-04-22T15:19:04.389Z,99833.70
2023-04-22T15:21:36.218Z,99827.47
2023-04-22T15:24:07.991Z,99824.48
2023-04-22T15:26:40.701Z,99834.84
2023-04-22T15:29:12.312Z,99837.83
2023-04-22T15:31:44.820Z,99836.34
2023-04-22T15:34:16.579Z,99834.70
2023-04-22T15:36:48.138Z,99838.14
2023-04-22T15:39:21.104Z,99838.87
2023-04-22T15:41:53.194Z,99840.61
2023-04-22T15:44:24.709Z,99849.21
2023-04-22T15:46:56.491Z,99841.05
2023-04-22T15:49:28.072Z,99839.88
2023-04-22T15:52:01.147Z,99846.09
2023-04-22T15:54:33.416Z,99848.34
2023-04-22T15:57:05.282Z,99850.08
2023-04-22T15:59:36.842Z,99846.66
2023-04-22T16:02:09.238Z,99849.80
2023-04-22T16:04:41.578Z,99852.33
2023-04-22T16:07:13.341Z,99849.80
2023-04-22T16:09:45.059Z,99852.05
2023-04-22T16:12:16.865Z,99847.80
2023-04-22T16:14:48.867Z,99855.34
2023-04-22T16:17:21.092Z,99852.83
2023-04-22T16:19:52.842Z,99855.26
2023-04-22T16:22:24.473Z,99865.75
2023-04-22T16:24:56.133Z,99859.45
2023-04-22T16:27:27.901Z,99866.16
2023-04-22T16:29:59.662Z,99866.84
2023-04-22T16:32:32.113Z,99862.77
2023-04-22T16:35:04.552Z,99867.25
2023-04-22T16:37:36.843Z,99872.95
2023-04-22T16:40:09.193Z,99868.70
2023-04-22T16:42:40.941Z,99876.09
2023-04-22T16:45:13.262Z,99877.52
2023-04-22T16:47:44.865Z,99881.30
2023-04-22T16:52:59.360Z,99878.78
2023-04-22T16:55:30.975Z,99889.41
2023-04-22T16:58:03.975Z,99881.22
2023-04-22T17:00:35.539Z,99887.05
2023-04-22T17:03:07.599Z,99888.75
2023-04-22T17:05:39.725Z,99891.52
2023-04-22T17:08:11.615Z,99894.06
2023-04-22T17:10:45.103Z,99896.98
2023-04-22T17:13:17.544Z,99901.44
2023-04-22T17:15:49.222Z,99900.64
2023-04-22T17:18:21.079Z,99902.86
2023-04-22T17:20:52.786Z,99907.31
2023-04-22T17:23:24.312Z,99906.62
2023-04-22T17:25:56.151Z,99911.80
2023-04-22T17:28:27.632Z,99908.06
2023-04-22T17:30:59.766Z,99910.14
2023-04-22T17:33:31.747Z,99918.36
2023-04-22T17:36:05.170Z,99926.23
2023-04-22T17:38:37.137Z,99921.81
2023-04-22T17:41:09.074Z,99923.70
2023-04-22T17:43:40.827Z,99925.05
2023-04-22T17:46:12.581Z,99934.14
2023-04-22T17:48:45.741Z,99938.59
2023-04-22T17:51:17.486Z,99940.63
2023-04-22T17:53:49.637Z,99947.13
2023-04-22T17:56:21.238Z,99951.73
2023-04-22T17:58:53.032Z,99951.91
2023-04-22T18:01:25.805Z,99949.17
2023-04-22T18:03:58.067Z,99949.55
2023-04-22T18:06:29.851Z,99956.55
2023-04-22T18:09:01.553Z,99963.02
2023-04-22T18:11:34.303Z,99966.47
2023-04-22T18:14:07.992Z,99963.03
2023-04-22T18:16:39.603Z,99972.61
2023-04-22T18:19:11.359Z,99971.91
2023-04-22T18:21:56.666Z,99971.75
2023-04-22T18:24:16.392Z,99973.82
2023-04-22T18:26:49.303Z,99976.19
2023-04-22T18:29:22.151Z,99977.22
2023-04-22T18:31:53.766Z,99980.45
2023-04-22T18:34:25.365Z,99986.09
2023-04-22T18:36:57.364Z,99989.86
2023-04-22T18:39:29.299Z,99986.80
2023-04-22T18:42:02.362Z,99981.67
2023-04-22T18:44:34.148Z,99985.08
2023-04-22T18:47:06.220Z,99979.91
2023-04-22T18:49:37.981Z,99981.68
2023-04-22T18:52:09.880Z,99984.41
2023-04-22T18:54:42.054Z,99984.74
2023-04-22T18:57:14.584Z,99992.61
2023-04-22T18:59:47.645Z,99997.05
2023-04-22T19:02:19.320Z,99996.31
2023-04-22T19:04:51.064Z,100004.18
2023-04-22T19:07:22.850Z,100000.75
2023-04-22T19:09:54.399Z,100003.81
2023-04-22T19:12:28.651Z,99999.39
2023-04-22T19:15:03.592Z,100005.89
2023-04-22T19:17:37.156Z,100000.39
2023-04-22T19:20:09.384Z,100006.89
2023-04-22T19:22:42.174Z,100005.69
2023-04-22T19:25:13.961Z,100008.26
2023-04-22T19:27:45.958Z,100006.19
2023-04-22T19:30:17.947Z,100010.45
2023-04-22T19:32:50.765Z,100012.52
2023-04-22T19:35:22.446Z,100013.19
2023-04-22T19:37:53.981Z,100010.29
2023-04-22T19:40:25.656Z,100012.86
2023-04-22T19:42:59.021Z,100022.91
2023-04-22T19:45:30.652Z,100015.05
2023-04-22T19:48:02.530Z,100018.45
2023-04-22T19:50:34.543Z,100030.91
2023-04-22T19:53:06.488Z,100025.97
2023-04-22T19:55:38.735Z,100020.31
2023-04-22T19:58:11.351Z,100025.10
2023-04-22T20:00:43.737Z,100022.37
2023-04-22T20:03:16.380Z,100027.13
2023-04-22T20:05:48.472Z,100028.66
2023-04-22T20:08:20.591Z,100027.63
2023-04-22T20:10:52.201Z,100034.45
2023-04-22T20:13:24.428Z,100031.88
2023-04-22T20:15:56.527Z,100035.30
2023-04-22T20:18:48.384Z,100028.64
2023-04-22T20:21:21.763Z,100030.01
2023-04-22T20:23:53.393Z,100032.91
2023-04-22T20:26:25.316Z,100031.54
2023-04-22T20:28:56.911Z,100031.17
2023-04-22T20:31:28.613Z,100034.44
2023-04-22T20:34:00.271Z,100029.30
2023-04-22T20:36:32.864Z,100028.81
2023-04-22T20:39:06.437Z,100028.28
2023-04-22T20:41:41.052Z,100030.34
2023-04-22T20:44:12.994Z,100038.87
2023-04-22T20:46:45.082Z,100038.87
2023-04-22T20:49:16.957Z,100038.53
2023-04-22T20:51:48.532Z,100038.53
2023-04-22T20:54:28.466Z,100034.77
2023-04-22T20:56:54.287Z,100040.77
2023-04-22T20:59:27.709Z,100037.17
2023-04-22T21:01:59.974Z,100040.23
2023-04-22T21:04:31.866Z,100040.23
2023-04-22T21:07:07.774Z,100034.10
2023-04-22T21:09:40.476Z,100045.86
2023-04-22T21:12:12.620Z,100041.43
2023-04-22T21:14:44.916Z,100040.73
2023-04-22T21:17:22.466Z,100039.36
2023-04-22T21:19:56.214Z,100043.98
2023-04-22T21:22:27.848Z,100045.31
2023-04-22T21:24:59.575Z,100044.47
2023-04-22T21:27:31.467Z,100044.80
2023-04-22T21:30:04.437Z,100048.34
2023-04-22T21:32:38.723Z,100051.90
2023-04-22T21:35:10.467Z,100050.52
2023-04-22T21:37:42.505Z,100049.80
2023-04-22T21:40:14.123Z,100051.16
2023-04-22T21:42:45.926Z,100044.16
2023-04-22T21:45:17.738Z,100043.98
2023-04-22T21:47:49.400Z,100045.30
2023-04-22T21:50:21.673Z,100050.24
2023-04-22T21:52:53.429Z,100050.56
2023-04-22T21:55:25.066Z,100046.91
2023-04-22T21:57:56.659Z,100048.44
2023-04-22T22:00:28.603Z,100051.48
2023-04-22T22:03:00.236Z,100053.55
2023-04-22T22:05:32.220Z,100052.81
2023-04-22T22:08:04.121Z,100054.50
2023-04-22T22:10:35.879Z,100053.79
2023-04-22T22:13:08.170Z,100054.10
2023-04-22T22:15:40.584Z,100055.78
2023-04-22T22:18:12.397Z,100055.77
2023-04-22T22:20:44.576Z,100056.61
2023-04-22T22:23:17.177Z,100060.33
2023-04-22T22:25:49.762Z,100062.38
2023-04-22T22:28:22.322Z,100064.89
2023-04-22T22:30:55.538Z,100061.98
2023-04-22T22:33:27.524Z,100059.08
2023-04-22T22:35:59.102Z,100054.64
2023-04-22T22:38:31.829Z,100063.14
2023-04-22T22:41:03.645Z,100061.06
2023-04-22T22:43:35.450Z,100058.98
2023-04-22T22:46:07.152Z,100059.30
2023-04-22T22:48:39.888Z,100056.23
2023-04-22T22:51:13.079Z,100056.73
2023-04-22T22:53:44.938Z,100061.01
2023-04-22T22:56:18.127Z,100059.44
2023-04-22T22:58:49.633Z,100062.69
2023-04-22T23:01:21.385Z,100063.49
2023-04-22T23:03:53.094Z,100066.71
2023-04-22T23:06:24.897Z,100061.95
2023-04-22T23:08:57.175Z,100063.80
2023-04-22T23:11:28.882Z,100056.81
2023-04-22T23:14:03.047Z,100061.77
2023-04-22T23:16:35.174Z,100060.19
2023-04-22T23:19:07.766Z,100059.84
2023-04-22T23:21:41.137Z,100063.93
2023-04-22T23:24:14.335Z,100064.58
2023-04-22T23:26:46.482Z,100068.33
2023-04-22T23:29:19.511Z,100070.03
2023-04-22T23:31:52.210Z,100065.27
2023-04-22T23:34:24.238Z,100072.56
2023-04-22T23:36:56.048Z,100070.00
2023-04-22T23:39:27.792Z,100067.58
2023-04-22T23:41:59.437Z,100070.98
2023-04-22T23:44:31.171Z,100064.48
2023-04-22T23:47:02.900Z,100069.22
2023-04-22T23:49:35.145Z,100073.80
2023-04-22T23:52:08.126Z,100067.52
2023-04-22T23:54:40.743Z,100073.12
2023-04-22T23:57:12.796Z,100066.62
2023-04-22T23:59:44.900Z,100066.43
